Time;durP1;ratioP1;P1;durP2;ratioP2;P2;SDS_P1;SDS_P2;PMS_P1;PMS_P2;Temp;Humidity;BMP_temperature;BMP_pressure;BME280_temperature;BME280_humidity;BME280_pressure;Samples;Min_cycle;Max_cycle;Signal;HPM_P1;HPM_P2
2021/01/08 00:02:19;;;;;;;10.57;6.03;;;2.60;99.90;;;;;;5031469;28;20030;-59
2021/01/08 00:04:45;;;;;;;9.23;5.80;;;2.60;99.90;;;;;;5032929;28;20113;-59
2021/01/08 00:07:12;;;;;;;11.82;6.95;;;2.50;99.90;;;;;;5031003;28;20026;-65
2021/01/08 00:09:38;;;;;;;11.30;6.25;;;2.60;99.90;;;;;;5031666;28;20104;-60
2021/01/08 00:12:05;;;;;;;12.70;6.10;;;2.60;99.90;;;;;;5030485;28;20032;-59
2021/01/08 00:14:30;;;;;;;13.85;6.13;;;2.50;99.90;;;;;;5032960;28;20030;-59
2021/01/08 00:16:56;;;;;;;11.75;5.63;;;2.60;99.90;;;;;;5031229;28;20075;-66
2021/01/08 00:19:22;;;;;;;10.55;6.80;;;2.50;99.90;;;;;;5032361;28;20033;-58
2021/01/08 00:21:48;;;;;;;12.30;5.72;;;2.40;99.90;;;;;;5031982;28;20025;-58
2021/01/08 00:24:14;;;;;;;12.93;6.30;;;2.40;99.90;;;;;;5032536;28;20438;-58
2021/01/08 00:26:40;;;;;;;11.07;6.72;;;2.30;99.90;;;;;;5031778;28;20434;-58
2021/01/08 00:29:08;;;;;;;9.20;5.65;;;2.30;99.90;;;;;;5030912;28;20025;-57
2021/01/08 00:31:43;;;;;;;14.50;7.13;;;2.40;99.90;;;;;;5031690;28;20364;-59
2021/01/08 00:34:10;;;;;;;11.73;6.47;;;2.40;99.90;;;;;;5031664;28;20037;-58
2021/01/08 00:36:36;;;;;;;14.63;6.90;;;2.40;99.90;;;;;;5032098;28;20033;-59
2021/01/08 00:39:04;;;;;;;10.65;6.15;;;2.40;99.90;;;;;;5032411;28;20076;-59
2021/01/08 00:41:35;;;;;;;11.32;5.75;;;2.50;99.90;;;;;;5035462;28;20085;-61
2021/01/08 00:44:01;;;;;;;10.35;5.50;;;2.50;99.90;;;;;;5033538;28;20029;-68
2021/01/08 00:46:35;;;;;;;10.25;6.30;;;2.50;99.90;;;;;;5033235;28;20252;-62
2021/01/08 00:49:02;;;;;;;11.43;6.13;;;2.50;99.90;;;;;;5027074;28;20163;-66
2021/01/08 00:51:28;;;;;;;10.55;5.57;;;2.60;99.90;;;;;;5030966;28;20034;-59
2021/01/08 00:53:53;;;;;;;10.85;6.38;;;2.60;99.90;;;;;;5030109;28;20044;-59
2021/01/08 00:56:20;;;;;;;12.25;5.95;;;2.60;99.90;;;;;;5030348;28;20021;-59
2021/01/08 00:58:46;;;;;;;11.75;5.97;;;2.50;99.90;;;;;;5031073;28;20053;-58
2021/01/08 01:01:16;;;;;;;9.20;6.05;;;2.60;99.90;;;;;;5030631;28;20029;-62
2021/01/08 01:03:42;;;;;;;7.93;5.20;;;2.60;99.90;;;;;;5032768;28;20025;-59
2021/01/08 01:06:08;;;;;;;10.52;6.05;;;2.70;99.90;;;;;;5034077;28;20061;-60
2021/01/08 01:08:34;;;;;;;7.82;4.97;;;2.60;99.90;;;;;;5032682;28;20033;-67
2021/01/08 01:11:00;;;;;;;13.43;6.72;;;2.60;99.90;;;;;;5034665;28;20398;-65
2021/01/08 01:13:26;;;;;;;9.43;6.03;;;2.50;99.90;;;;;;5034689;28;20129;-65
2021/01/08 01:15:52;;;;;;;10.88;5.70;;;2.50;99.90;;;;;;5035875;28;20036;-61
2021/01/08 01:18:18;;;;;;;13.55;6.45;;;2.60;99.90;;;;;;5031598;28;20112;-60
2021/01/08 01:20:44;;;;;;;10.95;5.63;;;2.60;99.90;;;;;;5033012;28;20029;-59
2021/01/08 01:23:10;;;;;;;8.60;5.32;;;2.40;99.90;;;;;;5033000;28;20023;-61
2021/01/08 01:25:36;;;;;;;8.43;6.28;;;2.50;99.90;;;;;;5034313;28;20041;-59
2021/01/08 01:28:04;;;;;;;10.90;5.25;;;2.50;99.90;;;;;;5031775;28;20032;-67
2021/01/08 01:30:31;;;;;;;9.88;5.30;;;2.50;99.90;;;;;;5037329;28;20045;-62
2021/01/08 01:32:58;;;;;;;8.85;5.22;;;2.50;99.90;;;;;;5037663;28;20071;-59
2021/01/08 01:35:24;;;;;;;10.65;6.05;;;2.40;99.90;;;;;;5037204;28;20608;-59
2021/01/08 01:37:51;;;;;;;10.38;5.07;;;2.50;99.90;;;;;;5038968;28;20481;-64
2021/01/08 01:40:17;;;;;;;12.07;6.32;;;2.50;99.90;;;;;;5037301;28;20036;-59
2021/01/08 01:42:43;;;;;;;10.30;6.18;;;2.50;99.90;;;;;;5035976;28;20048;-62
2021/01/08 01:45:09;;;;;;;9.23;4.80;;;2.40;99.90;;;;;;5036441;28;20045;-59
2021/01/08 01:47:35;;;;;;;14.52;6.75;;;2.40;99.90;;;;;;5036262;28;20132;-59
2021/01/08 01:50:01;;;;;;;12.98;7.22;;;2.40;99.90;;;;;;5037114;28;20109;-66
2021/01/08 01:52:27;;;;;;;14.10;5.53;;;2.30;99.90;;;;;;5035847;28;20030;-59
2021/01/08 01:54:53;;;;;;;12.65;6.75;;;2.30;99.90;;;;;;5036184;28;20029;-59
2021/01/08 01:57:18;;;;;;;12.23;6.78;;;2.40;99.90;;;;;;5032722;28;20030;-59
2021/01/08 01:59:44;;;;;;;10.27;6.43;;;2.40;99.90;;;;;;5034975;28;20050;-58
2021/01/08 02:02:22;;;;;;;10.82;5.95;;;2.30;99.90;;;;;;5034648;28;20030;-59
2021/01/08 02:04:49;;;;;;;12.95;7.00;;;2.30;99.90;;;;;;5035303;28;20091;-58
2021/01/08 02:07:16;;;;;;;12.32;7.28;;;2.30;99.90;;;;;;5034555;28;20110;-58
2021/01/08 02:09:42;;;;;;;13.15;6.45;;;2.20;99.90;;;;;;5035278;28;20030;-58
2021/01/08 02:12:08;;;;;;;9.13;6.15;;;2.30;99.90;;;;;;5033224;28;20410;-65
2021/01/08 02:14:35;;;;;;;12.70;5.85;;;2.30;99.90;;;;;;5033317;28;20069;-59
2021/01/08 02:17:02;;;;;;;10.00;6.90;;;2.30;99.90;;;;;;5033653;28;20037;-58
2021/01/08 02:19:37;;;;;;;14.93;7.85;;;2.30;99.90;;;;;;5016967;28;20041;-57
2021/01/08 02:22:12;;;;;;;11.80;6.40;;;2.30;99.90;;;;;;5033897;28;20048;-61
2021/01/08 02:24:59;;;;;;;14.30;7.43;;;2.20;99.90;;;;;;5034503;28;20029;-63
2021/01/08 02:27:26;;;;;;;16.25;7.05;;;2.30;99.90;;;;;;5033561;28;20031;-58
2021/01/08 02:29:52;;;;;;;15.73;6.97;;;2.20;99.90;;;;;;5034957;28;20100;-61
2021/01/08 02:32:19;;;;;;;12.02;7.07;;;2.30;99.90;;;;;;5033919;28;20379;-59
2021/01/08 02:34:44;;;;;;;12.73;7.68;;;2.30;99.90;;;;;;5036179;28;20036;-58
2021/01/08 02:37:10;;;;;;;17.30;7.50;;;2.20;99.90;;;;;;5034612;28;20429;-60
2021/01/08 02:39:36;;;;;;;12.77;6.70;;;2.10;99.90;;;;;;5034856;28;20025;-59
2021/01/08 02:42:04;;;;;;;11.43;7.07;;;2.20;99.90;;;;;;5033475;28;20061;-58
2021/01/08 02:44:30;;;;;;;13.38;8.13;;;2.10;99.90;;;;;;5032459;28;20033;-60
2021/01/08 02:46:56;;;;;;;14.50;7.72;;;2.20;99.90;;;;;;5033259;28;20387;-60
2021/01/08 02:49:21;;;;;;;16.80;8.02;;;2.20;99.90;;;;;;5032321;28;20505;-58
2021/01/08 02:51:47;;;;;;;15.02;7.97;;;2.10;99.90;;;;;;5033172;28;20148;-58
2021/01/08 02:54:13;;;;;;;15.05;8.07;;;2.10;99.90;;;;;;5034358;28;20368;-60
2021/01/08 02:56:46;;;;;;;13.23;7.43;;;2.00;99.90;;;;;;5035562;28;20029;-61
2021/01/08 02:59:13;;;;;;;14.45;8.07;;;2.00;99.90;;;;;;5034325;28;20061;-58
2021/01/08 03:01:39;;;;;;;18.42;7.28;;;2.00;99.90;;;;;;5033114;28;20030;-58
2021/01/08 03:04:06;;;;;;;14.02;7.38;;;2.00;99.90;;;;;;5033428;28;20037;-59
2021/01/08 03:06:33;;;;;;;13.48;7.10;;;2.10;99.90;;;;;;5032433;28;20116;-59
2021/01/08 03:09:02;;;;;;;13.23;7.82;;;2.10;99.90;;;;;;5032116;28;20116;-60
2021/01/08 03:11:28;;;;;;;16.70;10.05;;;2.00;99.90;;;;;;5031893;28;20627;-59
2021/01/08 03:13:55;;;;;;;12.07;7.97;;;2.00;99.90;;;;;;5032477;28;20033;-58
2021/01/08 03:16:22;;;;;;;14.52;8.10;;;2.10;99.90;;;;;;5031838;28;20021;-64
2021/01/08 03:18:47;;;;;;;15.52;8.23;;;2.00;99.90;;;;;;5035812;28;20041;-58
2021/01/08 03:21:13;;;;;;;15.73;9.52;;;2.00;99.90;;;;;;5033164;28;20452;-60
2021/01/08 03:23:39;;;;;;;16.65;7.63;;;2.00;99.90;;;;;;5032506;28;20124;-58
2021/01/08 03:26:04;;;;;;;15.27;10.10;;;2.10;99.90;;;;;;5033566;28;20033;-60
2021/01/08 03:28:30;;;;;;;14.05;8.65;;;2.00;99.90;;;;;;5032041;28;20044;-62
2021/01/08 03:30:56;;;;;;;15.70;8.80;;;2.00;99.90;;;;;;5033909;28;20033;-60
2021/01/08 03:33:21;;;;;;;12.73;8.15;;;1.90;99.90;;;;;;5032843;28;20044;-58
2021/01/08 03:35:47;;;;;;;14.50;8.55;;;1.90;99.90;;;;;;5033186;28;20145;-58
2021/01/08 03:38:13;;;;;;;13.68;8.13;;;2.00;99.90;;;;;;5032962;28;20490;-58
2021/01/08 03:40:41;;;;;;;18.27;8.68;;;1.90;99.90;;;;;;5033522;28;20037;-58
2021/01/08 03:43:08;;;;;;;16.88;9.13;;;1.80;99.90;;;;;;5031946;28;20573;-58
2021/01/08 03:45:34;;;;;;;14.60;7.55;;;1.70;99.90;;;;;;5033431;28;20097;-57
2021/01/08 03:48:00;;;;;;;21.27;9.52;;;1.90;99.90;;;;;;5033325;28;20475;-58
2021/01/08 03:50:28;;;;;;;16.83;9.55;;;1.90;99.90;;;;;;5030331;28;20163;-58
2021/01/08 03:52:54;;;;;;;17.80;8.68;;;1.90;99.90;;;;;;5031423;28;20037;-58
2021/01/08 03:55:19;;;;;;;14.27;8.88;;;1.90;99.90;;;;;;5029917;28;20049;-57
2021/01/08 03:57:45;;;;;;;16.13;9.65;;;1.90;99.90;;;;;;5030989;28;20475;-57
2021/01/08 04:00:11;;;;;;;18.35;9.50;;;1.80;99.90;;;;;;5030770;28;20049;-66
2021/01/08 04:02:37;;;;;;;17.00;10.63;;;1.80;99.90;;;;;;5032509;28;20032;-58
2021/01/08 04:05:06;;;;;;;16.88;8.68;;;1.90;99.90;;;;;;5031180;28;20026;-58
2021/01/08 04:07:31;;;;;;;16.85;9.88;;;1.80;99.90;;;;;;5030547;28;20331;-58
2021/01/08 04:09:57;;;;;;;15.55;8.15;;;1.80;99.90;;;;;;5031553;28;20495;-59
2021/01/08 04:12:23;;;;;;;16.15;10.20;;;1.80;99.90;;;;;;5030414;28;20117;-59
2021/01/08 04:14:49;;;;;;;16.10;8.20;;;1.90;99.90;;;;;;5032446;28;20473;-57
2021/01/08 04:17:15;;;;;;;16.45;9.57;;;1.90;99.90;;;;;;5031283;28;20494;-60
2021/01/08 04:19:40;;;;;;;14.25;9.70;;;1.90;99.90;;;;;;5014997;28;20030;-57
2021/01/08 04:22:06;;;;;;;18.65;10.13;;;1.80;99.90;;;;;;5031121;28;20048;-58
2021/01/08 04:24:32;;;;;;;16.20;9.80;;;1.80;99.90;;;;;;5030504;28;20205;-58
2021/01/08 04:26:57;;;;;;;18.88;9.25;;;1.80;99.90;;;;;;5033082;28;20037;-61
2021/01/08 04:29:23;;;;;;;16.30;8.60;;;1.90;99.90;;;;;;5030408;28;20079;-58
2021/01/08 04:31:48;;;;;;;13.38;8.52;;;1.90;99.90;;;;;;5031221;28;20034;-58
2021/01/08 04:34:14;;;;;;;12.93;8.57;;;1.90;99.90;;;;;;5031839;28;20068;-64
2021/01/08 04:36:40;;;;;;;16.35;10.25;;;2.00;99.90;;;;;;5031159;28;20026;-58
2021/01/08 04:39:06;;;;;;;15.30;9.10;;;2.10;99.90;;;;;;5030770;28;20039;-58
2021/01/08 04:41:34;;;;;;;13.90;8.20;;;2.00;99.90;;;;;;5030512;28;20026;-58
2021/01/08 04:44:00;;;;;;;12.80;8.10;;;2.10;99.90;;;;;;5031196;28;20589;-58
2021/01/08 04:46:30;;;;;;;14.20;8.80;;;2.10;99.90;;;;;;5030082;28;20048;-58
2021/01/08 04:49:00;;;;;;;19.83;9.45;;;2.10;99.90;;;;;;5031412;28;20040;-58
2021/01/08 04:51:27;;;;;;;15.80;8.07;;;2.10;99.90;;;;;;5030380;28;20060;-57
2021/01/08 04:53:53;;;;;;;13.57;8.00;;;2.10;99.90;;;;;;5032373;28;20037;-60
2021/01/08 04:56:22;;;;;;;12.40;8.52;;;2.10;99.90;;;;;;5030630;28;20025;-59
2021/01/08 04:58:48;;;;;;;11.95;7.35;;;2.30;99.90;;;;;;5033774;28;20049;-57
2021/01/08 05:01:15;;;;;;;14.63;7.80;;;2.30;99.90;;;;;;5031138;28;20025;-67
2021/01/08 05:03:41;;;;;;;12.32;7.80;;;2.30;99.90;;;;;;5031355;28;20033;-60
2021/01/08 05:06:06;;;;;;;10.98;7.88;;;2.30;99.90;;;;;;5032924;28;20364;-59
2021/01/08 05:08:32;;;;;;;10.95;7.85;;;2.30;99.90;;;;;;5035343;28;20026;-57
2021/01/08 05:10:58;;;;;;;11.32;7.80;;;2.30;99.90;;;;;;5034710;28;20025;-57
2021/01/08 05:13:37;;;;;;;13.00;7.25;;;2.20;99.90;;;;;;5034801;28;20056;-56
2021/01/08 05:16:02;;;;;;;14.15;7.97;;;2.30;99.90;;;;;;5035534;28;20029;-59
2021/01/08 05:18:30;;;;;;;11.65;7.45;;;2.30;99.90;;;;;;5034959;28;20106;-60
2021/01/08 05:20:56;;;;;;;13.57;8.27;;;2.30;99.90;;;;;;5035505;28;20080;-59
2021/01/08 05:23:22;;;;;;;14.13;8.93;;;2.20;99.90;;;;;;5035790;28;20029;-59
2021/01/08 05:25:48;;;;;;;12.80;8.30;;;2.20;99.90;;;;;;5035781;28;20104;-58
2021/01/08 05:28:19;;;;;;;13.18;8.48;;;2.20;99.90;;;;;;5035880;28;20026;-65
2021/01/08 05:30:45;;;;;;;15.55;8.95;;;2.10;99.90;;;;;;5036888;28;20029;-58
2021/01/08 05:33:15;;;;;;;12.98;8.25;;;2.10;99.90;;;;;;5036647;28;20436;-58
2021/01/08 05:35:42;;;;;;;15.95;9.52;;;2.00;99.90;;;;;;5036329;28;20038;-58
2021/01/08 05:38:09;;;;;;;19.23;8.95;;;2.00;99.90;;;;;;5035719;28;20100;-58
2021/01/08 05:40:38;;;;;;;14.73;9.32;;;2.00;99.90;;;;;;5033825;28;20037;-59
2021/01/08 05:43:04;;;;;;;13.35;8.15;;;2.00;99.90;;;;;;5034736;28;20478;-59
2021/01/08 05:45:30;;;;;;;15.15;9.85;;;2.00;99.90;;;;;;5034852;28;20115;-58
2021/01/08 05:47:58;;;;;;;15.32;9.63;;;2.00;99.90;;;;;;5034437;28;20163;-58
2021/01/08 05:50:26;;;;;;;16.45;9.15;;;2.10;99.90;;;;;;5036053;28;20053;-60
2021/01/08 05:53:04;;;;;;;15.73;9.93;;;2.00;99.90;;;;;;5036206;28;20029;-58
2021/01/08 05:55:40;;;;;;;17.10;9.60;;;2.00;99.90;;;;;;5036519;28;20575;-59
2021/01/08 05:58:22;;;;;;;14.95;8.85;;;2.00;99.90;;;;;;5034732;28;20037;-59
2021/01/08 06:00:58;;;;;;;14.98;9.18;;;2.00;99.90;;;;;;5038531;28;20040;-60
2021/01/08 06:03:24;;;;;;;13.68;8.95;;;2.10;99.90;;;;;;5036412;28;20079;-62
2021/01/08 06:05:55;;;;;;;17.42;8.95;;;2.10;99.90;;;;;;5037668;28;20045;-59
2021/01/08 06:08:24;;;;;;;15.65;9.35;;;2.20;99.90;;;;;;5033069;28;20025;-66
2021/01/08 06:10:56;;;;;;;14.70;8.60;;;2.20;99.90;;;;;;5035022;28;20487;-60
2021/01/08 06:13:27;;;;;;;16.33;11.45;;;2.20;99.90;;;;;;5036335;28;20048;-58
2021/01/08 06:15:55;;;;;;;20.73;9.75;;;2.20;99.90;;;;;;5035812;28;20083;-58
2021/01/08 06:18:23;;;;;;;13.73;7.82;;;2.20;99.90;;;;;;5032804;28;20033;-66
2021/01/08 06:21:03;;;;;;;12.70;7.82;;;2.30;99.90;;;;;;5034293;28;20045;-58
2021/01/08 06:23:39;;;;;;;11.40;7.43;;;2.40;99.90;;;;;;5031512;28;20052;-60
2021/01/08 06:26:06;;;;;;;10.60;7.88;;;2.40;99.90;;;;;;5060919;28;20037;-63
2021/01/08 06:28:38;;;;;;;11.55;7.40;;;2.40;99.90;;;;;;5033126;28;20076;-60
2021/01/08 06:31:06;;;;;;;10.18;7.13;;;2.40;99.90;;;;;;5036913;28;20025;-59
2021/01/08 06:33:37;;;;;;;10.00;7.15;;;2.40;99.90;;;;;;5033950;28;20049;-59
2021/01/08 06:36:19;;;;;;;12.50;6.63;;;2.40;99.90;;;;;;5035007;28;20037;-59
2021/01/08 06:38:56;;;;;;;9.43;6.07;;;2.50;99.90;;;;;;5066260;28;20359;-60
2021/01/08 06:41:22;;;;;;;12.00;6.85;;;2.40;99.90;;;;;;5032890;28;20030;-68
2021/01/08 06:43:59;;;;;;;12.80;8.23;;;2.30;99.90;;;;;;5034326;28;20120;-58
2021/01/08 06:46:33;;;;;;;12.77;7.75;;;2.30;99.90;;;;;;5034006;28;20367;-58
2021/01/08 06:49:02;;;;;;;11.65;7.18;;;2.20;99.90;;;;;;5032986;28;20463;-59
2021/01/08 06:51:30;;;;;;;12.52;6.70;;;2.20;99.90;;;;;;5031833;28;20071;-59
2021/01/08 06:53:58;;;;;;;12.10;7.63;;;2.20;99.90;;;;;;5016197;28;20453;-58
2021/01/08 06:56:34;;;;;;;10.07;7.32;;;2.30;99.90;;;;;;5032385;28;20030;-61
2021/01/08 06:59:01;;;;;;;9.88;6.85;;;2.10;99.90;;;;;;5034340;28;20071;-58
2021/01/08 07:01:52;;;;;;;10.32;6.93;;;2.20;99.90;;;;;;5032495;28;20030;-57
2021/01/08 07:04:25;;;;;;;10.40;6.97;;;2.20;99.90;;;;;;5034363;28;20033;-60
2021/01/08 07:07:01;;;;;;;10.93;6.32;;;2.20;99.90;;;;;;5032593;28;20041;-58
2021/01/08 07:09:31;;;;;;;12.40;6.50;;;2.30;99.90;;;;;;5031985;28;20026;-58
2021/01/08 07:11:57;;;;;;;11.68;6.43;;;2.40;99.90;;;;;;5032616;28;20025;-58
2021/01/08 07:14:24;;;;;;;8.63;6.28;;;2.40;99.90;;;;;;5031981;28;20033;-65
2021/01/08 07:16:52;;;;;;;9.13;6.82;;;2.50;99.90;;;;;;5034241;28;20489;-60
2021/01/08 07:19:22;;;;;;;11.52;6.75;;;2.50;99.90;;;;;;5034412;28;20044;-59
2021/01/08 07:21:51;;;;;;;9.00;6.47;;;2.40;99.90;;;;;;5016304;28;20505;-61
2021/01/08 07:24:36;;;;;;;10.05;6.20;;;2.50;99.90;;;;;;5032249;28;20041;-58
2021/01/08 07:27:24;;;;;;;10.57;6.38;;;2.40;99.90;;;;;;5027454;28;20029;-60
2021/01/08 07:30:00;;;;;;;11.95;6.88;;;2.50;99.90;;;;;;5031843;28;20029;-64
2021/01/08 07:32:45;;;;;;;11.18;7.40;;;2.50;99.90;;;;;;5031638;28;20531;-61
2021/01/08 07:35:44;;;;;;;9.35;6.25;;;2.50;99.90;;;;;;5032218;28;20438;-59
2021/01/08 07:38:14;;;;;;;11.93;7.65;;;2.50;99.90;;;;;;5031271;28;20534;-61
2021/01/08 07:40:49;;;;;;;15.02;6.35;;;2.60;99.90;;;;;;5015799;28;20491;-60
2021/01/08 07:43:15;;;;;;;8.75;6.32;;;2.60;99.90;;;;;;5032674;28;20043;-60
2021/01/08 07:45:54;;;;;;;9.35;5.80;;;2.70;99.90;;;;;;5014682;28;20117;-59
2021/01/08 07:48:24;;;;;;;9.10;6.35;;;2.80;99.90;;;;;;5015722;28;20150;-62
2021/01/08 07:50:51;;;;;;;13.32;6.15;;;2.80;99.90;;;;;;5031790;28;20128;-60
2021/01/08 07:53:50;;;;;;;11.75;6.13;;;2.80;99.90;;;;;;5014666;28;20116;-60
2021/01/08 07:56:24;;;;;;;9.73;6.72;;;2.90;99.90;;;;;;5010613;28;20468;-58
2021/01/08 07:58:59;;;;;;;7.38;5.10;;;2.90;99.90;;;;;;5010240;28;20050;-61
2021/01/08 08:01:26;;;;;;;8.30;6.43;;;3.00;99.90;;;;;;5010959;28;20037;-66
2021/01/08 08:04:00;;;;;;;10.13;6.40;;;2.80;99.90;;;;;;4994184;28;20026;-58
2021/01/08 08:06:39;;;;;;;9.90;6.15;;;3.00;99.90;;;;;;5010940;28;20064;-66
2021/01/08 08:09:06;;;;;;;8.82;5.75;;;2.90;99.90;;;;;;4994982;28;20080;-62
2021/01/08 08:11:35;;;;;;;13.52;6.95;;;3.00;99.90;;;;;;5010866;28;20037;-58
2021/01/08 08:14:02;;;;;;;8.40;5.95;;;3.00;99.90;;;;;;5011057;28;20034;-58
2021/01/08 08:16:38;;;;;;;9.90;6.22;;;3.00;99.90;;;;;;4993210;28;20057;-66
2021/01/08 08:19:09;;;;;;;8.68;6.18;;;3.00;99.90;;;;;;4993714;28;20463;-58
2021/01/08 08:21:35;;;;;;;9.60;6.38;;;2.90;99.90;;;;;;5009543;28;20535;-58
2021/01/08 08:24:06;;;;;;;11.98;8.02;;;3.00;99.90;;;;;;4993949;28;20459;-60
2021/01/08 08:26:34;;;;;;;10.45;6.45;;;3.10;99.90;;;;;;4996650;28;20034;-60
2021/01/08 08:29:06;;;;;;;10.27;6.53;;;3.20;99.90;;;;;;5030955;28;20072;-59
2021/01/08 08:31:37;;;;;;;9.50;7.25;;;3.20;99.90;;;;;;5031247;28;20029;-58
2021/01/08 08:34:04;;;;;;;9.25;6.82;;;3.20;99.90;;;;;;5030309;28;20042;-60
2021/01/08 08:36:31;;;;;;;9.63;6.70;;;3.20;99.90;;;;;;5030302;28;20080;-61
2021/01/08 08:39:04;;;;;;;10.82;7.10;;;3.30;99.90;;;;;;5030767;28;20025;-59
2021/01/08 08:41:31;;;;;;;10.02;6.45;;;3.20;99.90;;;;;;5032955;28;20036;-64
2021/01/08 08:44:08;;;;;;;9.93;6.57;;;3.20;99.90;;;;;;5034808;28;20034;-59
2021/01/08 08:46:47;;;;;;;9.95;6.07;;;3.30;99.90;;;;;;5034281;28;20029;-60
2021/01/08 08:49:31;;;;;;;8.65;6.07;;;3.40;99.90;;;;;;5034861;28;20034;-58
2021/01/08 08:51:57;;;;;;;9.00;6.68;;;3.30;99.90;;;;;;5034703;28;20463;-60
2021/01/08 08:54:24;;;;;;;9.20;5.70;;;3.40;99.90;;;;;;5035669;28;20038;-60
2021/01/08 08:57:02;;;;;;;7.85;5.93;;;3.50;99.90;;;;;;5033965;28;20506;-61
2021/01/08 08:59:41;;;;;;;10.48;6.20;;;3.60;99.90;;;;;;5034355;28;20506;-67
2021/01/08 09:02:08;;;;;;;12.35;6.78;;;3.60;99.90;;;;;;5034955;28;20025;-60
2021/01/08 09:04:34;;;;;;;7.78;5.90;;;3.60;99.90;;;;;;5033307;28;20029;-59
2021/01/08 09:07:10;;;;;;;12.02;5.38;;;3.70;99.90;;;;;;5034761;28;20029;-59
2021/01/08 09:09:40;;;;;;;8.52;6.13;;;3.60;99.90;;;;;;5034309;28;20021;-60
2021/01/08 09:12:12;;;;;;;13.20;6.88;;;3.70;99.90;;;;;;5035703;28;20075;-60
2021/01/08 09:14:40;;;;;;;9.68;5.30;;;3.60;99.90;;;;;;5033768;28;20053;-59
2021/01/08 09:17:14;;;;;;;10.18;5.43;;;3.60;99.90;;;;;;5034363;28;20057;-60
2021/01/08 09:19:51;;;;;;;9.15;5.20;;;3.70;99.90;;;;;;5034020;28;20093;-60
2021/01/08 09:22:17;;;;;;;7.00;5.28;;;3.70;99.90;;;;;;5034406;28;20068;-58
2021/01/08 09:24:45;;;;;;;8.57;4.88;;;3.80;99.90;;;;;;5033583;28;20029;-60
2021/01/08 09:27:12;;;;;;;7.38;4.63;;;3.80;99.90;;;;;;5033866;28;20026;-60
2021/01/08 09:29:38;;;;;;;8.85;5.13;;;3.90;99.90;;;;;;5016896;28;20432;-59
2021/01/08 09:32:06;;;;;;;7.53;5.00;;;4.00;99.90;;;;;;5033954;28;20025;-59
2021/01/08 09:34:33;;;;;;;8.10;5.28;;;4.00;99.90;;;;;;5033593;28;20038;-67
2021/01/08 09:37:10;;;;;;;6.40;4.72;;;4.10;99.90;;;;;;5035760;28;20034;-61
2021/01/08 09:39:39;;;;;;;9.23;5.30;;;4.00;99.90;;;;;;5033313;28;20489;-60
2021/01/08 09:42:05;;;;;;;8.40;6.03;;;4.00;99.90;;;;;;5034048;28;20030;-61
2021/01/08 09:44:33;;;;;;;12.00;4.82;;;4.00;99.90;;;;;;5034830;28;20493;-65
2021/01/08 09:47:00;;;;;;;9.18;6.32;;;4.10;99.90;;;;;;5035714;28;20029;-61
2021/01/08 09:49:43;;;;;;;7.78;5.38;;;4.10;99.90;;;;;;5033185;28;20030;-62
2021/01/08 09:52:11;;;;;;;8.07;5.30;;;4.20;99.90;;;;;;5034179;28;20033;-60
2021/01/08 09:54:48;;;;;;;7.80;5.32;;;4.10;99.90;;;;;;5033739;28;20034;-61
2021/01/08 09:57:35;;;;;;;9.38;5.50;;;4.20;99.90;;;;;;5037132;28;20356;-60
2021/01/08 10:00:11;;;;;;;8.48;5.57;;;4.20;99.90;;;;;;5034514;28;20399;-59
2021/01/08 10:02:44;;;;;;;7.30;4.97;;;4.10;99.90;;;;;;5032824;28;20422;-58
2021/01/08 10:05:19;;;;;;;7.57;5.03;;;4.10;99.90;;;;;;5033405;28;20080;-59
2021/01/08 10:07:45;;;;;;;6.75;4.65;;;4.20;99.90;;;;;;5032885;28;20052;-60
2021/01/08 10:10:13;;;;;;;7.32;5.22;;;4.20;99.90;;;;;;5033411;28;20026;-59
2021/01/08 10:12:49;;;;;;;7.13;4.93;;;4.20;99.90;;;;;;5033983;28;20022;-59
2021/01/08 10:15:18;;;;;;;7.38;4.63;;;4.20;99.90;;;;;;5034314;28;20049;-59
2021/01/08 10:17:44;;;;;;;7.22;4.75;;;4.20;99.90;;;;;;5033329;28;20064;-60
2021/01/08 10:20:19;;;;;;;8.50;5.20;;;4.30;99.90;;;;;;5033981;28;20029;-64
2021/01/08 10:22:49;;;;;;;6.97;4.88;;;4.30;99.90;;;;;;5034199;28;20463;-60
2021/01/08 10:25:28;;;;;;;6.70;4.50;;;4.30;99.90;;;;;;5033035;28;20037;-60
2021/01/08 10:28:14;;;;;;;5.93;4.78;;;4.30;99.90;;;;;;5033322;28;20044;-59
2021/01/08 10:30:41;;;;;;;6.32;5.18;;;4.40;99.90;;;;;;5032474;28;20101;-60
2021/01/08 10:33:07;;;;;;;6.72;4.85;;;4.40;99.90;;;;;;5033231;28;20116;-63
2021/01/08 10:35:34;;;;;;;5.55;4.10;;;4.40;99.90;;;;;;5034161;28;20029;-66
2021/01/08 10:38:00;;;;;;;4.90;3.95;;;4.40;99.90;;;;;;5034201;28;20029;-59
2021/01/08 10:40:26;;;;;;;6.70;4.40;;;4.40;99.90;;;;;;5033510;28;20030;-60
2021/01/08 10:42:52;;;;;;;5.78;4.35;;;4.30;99.90;;;;;;5034915;28;20048;-67
2021/01/08 10:45:18;;;;;;;6.32;4.03;;;4.30;99.90;;;;;;5033544;28;20091;-60
2021/01/08 10:47:45;;;;;;;5.70;4.07;;;4.40;99.90;;;;;;5034577;28;20410;-62
2021/01/08 10:50:12;;;;;;;5.43;4.45;;;4.40;99.90;;;;;;5033919;28;20026;-63
2021/01/08 10:52:37;;;;;;;4.75;4.07;;;4.50;99.90;;;;;;5032465;28;20049;-68
2021/01/08 10:55:05;;;;;;;5.88;4.05;;;4.50;99.90;;;;;;5034708;28;20091;-61
2021/01/08 10:57:31;;;;;;;4.28;3.65;;;4.40;99.90;;;;;;5034626;28;20018;-60
2021/01/08 10:59:57;;;;;;;4.32;3.92;;;4.50;99.90;;;;;;5032948;28;20419;-60
2021/01/08 11:02:22;;;;;;;4.38;3.83;;;4.50;99.90;;;;;;5033511;28;20478;-60
2021/01/08 11:04:48;;;;;;;4.25;3.67;;;4.50;99.90;;;;;;5031345;28;20131;-59
2021/01/08 11:07:14;;;;;;;4.65;3.20;;;4.40;99.90;;;;;;5031823;28;20021;-64
2021/01/08 11:09:40;;;;;;;5.30;3.70;;;4.40;99.90;;;;;;5031742;28;20476;-61
2021/01/08 11:12:06;;;;;;;3.28;2.97;;;4.50;99.90;;;;;;5032232;28;20052;-60
2021/01/08 11:14:32;;;;;;;5.53;3.97;;;4.40;99.90;;;;;;5033013;28;20041;-62
2021/01/08 11:16:58;;;;;;;10.25;3.47;;;5.70;99.90;;;;;;5031551;28;20069;-60
2021/01/08 11:19:25;;;;;;;4.40;3.35;;;6.50;99.90;;;;;;5033603;28;20033;-60
2021/01/08 11:21:56;;;;;;;5.80;4.00;;;6.80;99.90;;;;;;5032837;28;20030;-61
2021/01/08 11:24:22;;;;;;;3.80;2.65;;;7.00;99.90;;;;;;5033314;28;20033;-59
2021/01/08 11:26:48;;;;;;;5.00;2.95;;;6.20;99.90;;;;;;5032594;28;20598;-59
2021/01/08 11:29:14;;;;;;;3.38;2.78;;;5.50;99.90;;;;;;5031686;28;20030;-59
2021/01/08 11:31:40;;;;;;;3.13;2.70;;;5.20;99.90;;;;;;5063852;28;20498;-68
2021/01/08 11:34:10;;;;;;;5.20;3.08;;;4.90;99.90;;;;;;5032234;28;20124;-59
2021/01/08 11:36:39;;;;;;;3.45;2.85;;;4.80;99.90;;;;;;5033195;28;20025;-63
2021/01/08 11:39:06;;;;;;;4.43;3.55;;;4.80;99.90;;;;;;5033507;28;20033;-62
2021/01/08 11:41:32;;;;;;;3.38;3.08;;;4.80;99.90;;;;;;5033637;28;20067;-58
2021/01/08 11:43:58;;;;;;;3.10;2.80;;;4.90;99.90;;;;;;5032825;28;20100;-60
2021/01/08 11:46:24;;;;;;;4.00;2.85;;;4.80;99.90;;;;;;5031822;28;20038;-58
2021/01/08 11:48:52;;;;;;;29.65;6.22;;;4.80;99.90;;;;;;5063479;28;20029;-66
2021/01/08 11:51:22;;;;;;;3.00;2.70;;;4.90;99.90;;;;;;5032777;28;20196;-58
2021/01/08 11:53:48;;;;;;;6.63;3.40;;;4.80;99.90;;;;;;5030606;28;20021;-58
2021/01/08 11:56:14;;;;;;;4.72;3.08;;;4.80;99.90;;;;;;5033499;28;20097;-60
2021/01/08 11:58:42;;;;;;;3.60;2.67;;;4.80;99.90;;;;;;5031151;28;20049;-69
2021/01/08 12:01:08;;;;;;;4.35;3.72;;;4.90;99.90;;;;;;5032007;28;20025;-62
2021/01/08 12:03:39;;;;;;;3.55;2.65;;;4.90;99.90;;;;;;5031763;28;20056;-64
2021/01/08 12:06:09;;;;;;;3.20;2.67;;;5.00;99.90;;;;;;5031587;28;20064;-61
2021/01/08 12:08:38;;;;;;;3.45;3.13;;;5.10;99.90;;;;;;5031394;28;20021;-60
2021/01/08 12:11:04;;;;;;;6.95;3.50;;;5.20;99.90;;;;;;5032280;28;20032;-69
2021/01/08 12:13:29;;;;;;;6.38;2.85;;;5.20;99.90;;;;;;5031892;28;20124;-65
2021/01/08 12:15:55;;;;;;;2.72;2.13;;;5.10;99.90;;;;;;5062759;28;20048;-66
2021/01/08 12:18:21;;;;;;;2.80;2.50;;;5.20;99.90;;;;;;5032456;28;20064;-70
2021/01/08 12:20:47;;;;;;;16.63;10.35;;;5.30;99.90;;;;;;5030807;28;20068;-59
2021/01/08 12:23:14;;;;;;;3.35;2.65;;;6.50;99.90;;;;;;5031199;28;20422;-60
2021/01/08 12:25:41;;;;;;;2.67;2.35;;;7.00;99.90;;;;;;5038668;28;20021;-69
2021/01/08 12:28:08;;;;;;;2.40;2.17;;;6.50;99.90;;;;;;5050389;28;20025;-60
2021/01/08 12:30:33;;;;;;;3.22;2.60;;;6.00;99.90;;;;;;5050783;28;20024;-59
2021/01/08 12:33:00;;;;;;;3.35;2.55;;;5.70;99.90;;;;;;5049527;28;20025;-60
2021/01/08 12:35:26;;;;;;;3.85;3.00;;;5.50;99.90;;;;;;5050299;28;20087;-60
2021/01/08 12:37:53;;;;;;;3.95;3.30;;;5.70;99.90;;;;;;5049172;28;20025;-59
2021/01/08 12:40:19;;;;;;;3.53;3.00;;;5.80;99.90;;;;;;5050670;28;20474;-59
2021/01/08 12:42:49;;;;;;;4.53;3.47;;;5.60;99.90;;;;;;5049001;28;20025;-61
2021/01/08 12:45:15;;;;;;;3.35;2.40;;;5.60;99.90;;;;;;5051780;28;20029;-60
2021/01/08 12:47:42;;;;;;;3.08;2.58;;;5.80;99.90;;;;;;5050004;28;20056;-67
2021/01/08 12:50:08;;;;;;;2.60;2.33;;;5.80;99.90;;;;;;5051692;28;20060;-61
2021/01/08 12:52:34;;;;;;;3.50;2.72;;;5.50;99.90;;;;;;5050099;28;20032;-62
2021/01/08 12:55:00;;;;;;;2.53;2.05;;;5.50;99.90;;;;;;5048722;28;20037;-61
2021/01/08 12:57:26;;;;;;;2.38;1.98;;;5.60;99.90;;;;;;5050327;28;20059;-65
2021/01/08 12:59:52;;;;;;;2.58;2.38;;;5.70;99.90;;;;;;5049867;28;20048;-66